sensor_id;sensor_type;location;lat;lon;timestamp;P1;durP1;ratioP1;P2;durP2;ratioP2
3149;SDS011;32503;47.748;8.960;2023-11-21T00:00:12;0.70;;;0.60;;
3149;SDS011;32503;47.748;8.960;2023-11-21T00:02:40;1.20;;;0.83;;
3149;SDS011;32503;47.748;8.960;2023-11-21T00:05:08;1.20;;;0.80;;
3149;SDS011;32503;47.748;8.960;2023-11-21T00:07:35;2.60;;;0.80;;
3149;SDS011;32503;47.748;8.960;2023-11-21T00:10:02;2.90;;;0.70;;
3149;SDS011;32503;47.748;8.960;2023-11-21T00:12:31;2.73;;;0.67;;
3149;SDS011;32503;47.748;8.960;2023-11-21T00:15:00;1.37;;;0.70;;
3149;SDS011;32503;47.748;8.960;2023-11-21T00:17:27;2.20;;;0.93;;
3149;SDS011;32503;47.748;8.960;2023-11-21T00:19:54;1.27;;;0.73;;
3149;SDS011;32503;47.748;8.960;2023-11-21T00:22:21;2.10;;;0.80;;
3149;SDS011;32503;47.748;8.960;2023-11-21T00:24:48;1.37;;;1.00;;
3149;SDS011;32503;47.748;8.960;2023-11-21T00:27:15;1.20;;;0.70;;
3149;SDS011;32503;47.748;8.960;2023-11-21T00:29:42;0.90;;;0.70;;
3149;SDS011;32503;47.748;8.960;2023-11-21T00:32:11;0.80;;;0.60;;
3149;SDS011;32503;47.748;8.960;2023-11-21T00:34:38;1.83;;;0.60;;
3149;SDS011;32503;47.748;8.960;2023-11-21T00:37:05;1.13;;;0.70;;
3149;SDS011;32503;47.748;8.960;2023-11-21T00:39:32;2.07;;;0.80;;
3149;SDS011;32503;47.748;8.960;2023-11-21T00:42:00;1.50;;;0.70;;
3149;SDS011;32503;47.748;8.960;2023-11-21T00:44:27;1.53;;;1.10;;
3149;SDS011;32503;47.748;8.960;2023-11-21T00:46:54;0.97;;;0.87;;
3149;SDS011;32503;47.748;8.960;2023-11-21T00:49:23;1.20;;;0.80;;
3149;SDS011;32503;47.748;8.960;2023-11-21T00:51:49;1.20;;;1.00;;
3149;SDS011;32503;47.748;8.960;2023-11-21T00:54:16;1.00;;;0.73;;
3149;SDS011;32503;47.748;8.960;2023-11-21T00:56:43;0.80;;;0.80;;
3149;SDS011;32503;47.748;8.960;2023-11-21T00:59:12;0.60;;;0.60;;
3149;SDS011;32503;47.748;8.960;2023-11-21T01:01:39;1.70;;;0.80;;
3149;SDS011;32503;47.748;8.960;2023-11-21T01:04:06;1.30;;;1.20;;
3149;SDS011;32503;47.748;8.960;2023-11-21T01:06:34;1.33;;;0.70;;
3149;SDS011;32503;47.748;8.960;2023-11-21T01:09:02;0.70;;;0.70;;
3149;SDS011;32503;47.748;8.960;2023-11-21T01:11:32;0.70;;;0.60;;
3149;SDS011;32503;47.748;8.960;2023-11-21T01:14:01;1.53;;;0.90;;
3149;SDS011;32503;47.748;8.960;2023-11-21T01:16:29;0.87;;;0.87;;
3149;SDS011;32503;47.748;8.960;2023-11-21T01:18:57;1.10;;;1.00;;
3149;SDS011;32503;47.748;8.960;2023-11-21T01:21:25;1.57;;;1.20;;
3149;SDS011;32503;47.748;8.960;2023-11-21T01:23:57;1.17;;;1.07;;
3149;SDS011;32503;47.748;8.960;2023-11-21T01:26:24;0.90;;;0.77;;
3149;SDS011;32503;47.748;8.960;2023-11-21T01:28:51;2.47;;;0.97;;
3149;SDS011;32503;47.748;8.960;2023-11-21T01:31:18;0.83;;;0.70;;
3149;SDS011;32503;47.748;8.960;2023-11-21T01:33:45;1.43;;;0.70;;
3149;SDS011;32503;47.748;8.960;2023-11-21T01:36:13;0.87;;;0.87;;
3149;SDS011;32503;47.748;8.960;2023-11-21T01:38:43;1.20;;;1.10;;
3149;SDS011;32503;47.748;8.960;2023-11-21T01:41:12;1.40;;;1.10;;
3149;SDS011;32503;47.748;8.960;2023-11-21T01:43:42;1.23;;;1.00;;
3149;SDS011;32503;47.748;8.960;2023-11-21T01:46:09;3.20;;;1.10;;
3149;SDS011;32503;47.748;8.960;2023-11-21T01:48:36;2.13;;;1.10;;
3149;SDS011;32503;47.748;8.960;2023-11-21T01:51:04;1.20;;;1.10;;
3149;SDS011;32503;47.748;8.960;2023-11-21T01:53:33;1.27;;;1.00;;
3149;SDS011;32503;47.748;8.960;2023-11-21T01:56:01;2.50;;;1.00;;
3149;SDS011;32503;47.748;8.960;2023-11-21T01:58:31;1.30;;;1.20;;
3149;SDS011;32503;47.748;8.960;2023-11-21T02:00:58;2.03;;;1.00;;
3149;SDS011;32503;47.748;8.960;2023-11-21T02:03:28;5.90;;;1.10;;
3149;SDS011;32503;47.748;8.960;2023-11-21T02:05:56;1.00;;;0.80;;
3149;SDS011;32503;47.748;8.960;2023-11-21T02:08:23;1.20;;;1.10;;
3149;SDS011;32503;47.748;8.960;2023-11-21T02:10:52;2.40;;;0.90;;
3149;SDS011;32503;47.748;8.960;2023-11-21T02:13:22;1.00;;;0.90;;
3149;SDS011;32503;47.748;8.960;2023-11-21T02:15:51;1.43;;;1.07;;
3149;SDS011;32503;47.748;8.960;2023-11-21T02:18:19;3.33;;;1.00;;
3149;SDS011;32503;47.748;8.960;2023-11-21T02:20:47;1.20;;;0.80;;
3149;SDS011;32503;47.748;8.960;2023-11-21T02:23:15;2.50;;;1.00;;
3149;SDS011;32503;47.748;8.960;2023-11-21T02:25:43;0.83;;;0.80;;
3149;SDS011;32503;47.748;8.960;2023-11-21T02:28:10;1.27;;;0.80;;
3149;SDS011;32503;47.748;8.960;2023-11-21T02:30:37;1.47;;;0.80;;
3149;SDS011;32503;47.748;8.960;2023-11-21T02:33:05;0.80;;;0.70;;
3149;SDS011;32503;47.748;8.960;2023-11-21T02:35:32;2.50;;;1.00;;
3149;SDS011;32503;47.748;8.960;2023-11-21T02:38:00;4.93;;;0.83;;
3149;SDS011;32503;47.748;8.960;2023-11-21T02:40:29;1.73;;;1.23;;
3149;SDS011;32503;47.748;8.960;2023-11-21T02:42:56;3.17;;;1.00;;
3149;SDS011;32503;47.748;8.960;2023-11-21T02:45:24;5.43;;;1.50;;
3149;SDS011;32503;47.748;8.960;2023-11-21T02:47:51;1.00;;;1.00;;
3149;SDS011;32503;47.748;8.960;2023-11-21T02:50:21;1.00;;;0.70;;
3149;SDS011;32503;47.748;8.960;2023-11-21T02:52:48;1.60;;;1.00;;
3149;SDS011;32503;47.748;8.960;2023-11-21T02:55:16;1.53;;;0.70;;
3149;SDS011;32503;47.748;8.960;2023-11-21T02:57:44;1.93;;;0.87;;
3149;SDS011;32503;47.748;8.960;2023-11-21T03:00:11;2.10;;;0.80;;
3149;SDS011;32503;47.748;8.960;2023-11-21T03:02:40;1.07;;;0.90;;
3149;SDS011;32503;47.748;8.960;2023-11-21T03:05:07;0.80;;;0.80;;
3149;SDS011;32503;47.748;8.960;2023-11-21T03:07:35;2.63;;;1.03;;
3149;SDS011;32503;47.748;8.960;2023-11-21T03:10:03;1.63;;;1.30;;
3149;SDS011;32503;47.748;8.960;2023-11-21T03:12:34;0.83;;;0.73;;
3149;SDS011;32503;47.748;8.960;2023-11-21T03:15:02;1.43;;;1.10;;
3149;SDS011;32503;47.748;8.960;2023-11-21T03:17:31;1.97;;;1.10;;
3149;SDS011;32503;47.748;8.960;2023-11-21T03:19:59;1.50;;;1.07;;
3149;SDS011;32503;47.748;8.960;2023-11-21T03:22:26;1.03;;;0.93;;
3149;SDS011;32503;47.748;8.960;2023-11-21T03:24:53;1.73;;;0.67;;
3149;SDS011;32503;47.748;8.960;2023-11-21T03:27:20;1.30;;;1.23;;
3149;SDS011;32503;47.748;8.960;2023-11-21T03:29:48;1.40;;;1.00;;
3149;SDS011;32503;47.748;8.960;2023-11-21T03:32:17;1.60;;;1.03;;
3149;SDS011;32503;47.748;8.960;2023-11-21T03:34:53;1.03;;;1.00;;
3149;SDS011;32503;47.748;8.960;2023-11-21T03:37:22;1.17;;;1.07;;
3149;SDS011;32503;47.748;8.960;2023-11-21T03:39:49;2.93;;;1.00;;
3149;SDS011;32503;47.748;8.960;2023-11-21T03:42:17;1.70;;;0.83;;
3149;SDS011;32503;47.748;8.960;2023-11-21T03:44:44;2.30;;;0.70;;
3149;SDS011;32503;47.748;8.960;2023-11-21T03:47:11;2.70;;;0.90;;
3149;SDS011;32503;47.748;8.960;2023-11-21T03:49:39;1.27;;;0.70;;
3149;SDS011;32503;47.748;8.960;2023-11-21T03:52:06;4.03;;;1.00;;
3149;SDS011;32503;47.748;8.960;2023-11-21T03:54:34;0.90;;;0.80;;
3149;SDS011;32503;47.748;8.960;2023-11-21T03:57:01;2.40;;;0.60;;
3149;SDS011;32503;47.748;8.960;2023-11-21T03:59:28;1.10;;;0.70;;
3149;SDS011;32503;47.748;8.960;2023-11-21T04:01:55;2.60;;;0.87;;
3149;SDS011;32503;47.748;8.960;2023-11-21T04:04:23;2.40;;;0.70;;
3149;SDS011;32503;47.748;8.960;2023-11-21T04:06:51;0.77;;;0.77;;
3149;SDS011;32503;47.748;8.960;2023-11-21T04:09:18;0.90;;;0.70;;
3149;SDS011;32503;47.748;8.960;2023-11-21T04:11:49;1.47;;;1.00;;
3149;SDS011;32503;47.748;8.960;2023-11-21T04:14:16;1.27;;;1.00;;
3149;SDS011;32503;47.748;8.960;2023-11-21T04:16:43;0.90;;;0.90;;
3149;SDS011;32503;47.748;8.960;2023-11-21T04:19:10;1.03;;;0.93;;
3149;SDS011;32503;47.748;8.960;2023-11-21T04:21:39;1.00;;;0.90;;
3149;SDS011;32503;47.748;8.960;2023-11-21T04:24:08;0.73;;;0.73;;
3149;SDS011;32503;47.748;8.960;2023-11-21T04:26:35;1.60;;;1.50;;
3149;SDS011;32503;47.748;8.960;2023-11-21T04:29:02;1.83;;;0.70;;
3149;SDS011;32503;47.748;8.960;2023-11-21T04:31:30;2.60;;;0.80;;
3149;SDS011;32503;47.748;8.960;2023-11-21T04:33:58;0.77;;;0.70;;
3149;SDS011;32503;47.748;8.960;2023-11-21T04:36:25;0.70;;;0.67;;
3149;SDS011;32503;47.748;8.960;2023-11-21T04:38:52;2.13;;;1.83;;
3149;SDS011;32503;47.748;8.960;2023-11-21T04:41:20;1.53;;;0.70;;
3149;SDS011;32503;47.748;8.960;2023-11-21T04:43:47;0.70;;;0.50;;
3149;SDS011;32503;47.748;8.960;2023-11-21T04:46:15;0.80;;;0.80;;
3149;SDS011;32503;47.748;8.960;2023-11-21T04:48:42;1.33;;;0.60;;
3149;SDS011;32503;47.748;8.960;2023-11-21T04:51:09;1.53;;;0.83;;
3149;SDS011;32503;47.748;8.960;2023-11-21T04:53:39;0.80;;;0.80;;
3149;SDS011;32503;47.748;8.960;2023-11-21T04:56:06;0.80;;;0.67;;
3149;SDS011;32503;47.748;8.960;2023-11-21T04:58:35;1.03;;;0.70;;
3149;SDS011;32503;47.748;8.960;2023-11-21T05:01:02;0.80;;;0.77;;
3149;SDS011;32503;47.748;8.960;2023-11-21T05:03:29;0.77;;;0.70;;
3149;SDS011;32503;47.748;8.960;2023-11-21T05:05:57;1.03;;;0.83;;
3149;SDS011;32503;47.748;8.960;2023-11-21T05:08:24;4.93;;;1.50;;
3149;SDS011;32503;47.748;8.960;2023-11-21T05:10:52;1.93;;;1.40;;
3149;SDS011;32503;47.748;8.960;2023-11-21T05:13:19;2.67;;;2.47;;
3149;SDS011;32503;47.748;8.960;2023-11-21T05:15:49;1.90;;;1.80;;
3149;SDS011;32503;47.748;8.960;2023-11-21T05:18:16;1.90;;;1.80;;
3149;SDS011;32503;47.748;8.960;2023-11-21T05:20:43;2.90;;;1.30;;
3149;SDS011;32503;47.748;8.960;2023-11-21T05:23:10;1.47;;;1.00;;
3149;SDS011;32503;47.748;8.960;2023-11-21T05:25:37;1.27;;;1.17;;
3149;SDS011;32503;47.748;8.960;2023-11-21T05:28:04;1.10;;;1.03;;
3149;SDS011;32503;47.748;8.960;2023-11-21T05:30:32;2.20;;;0.80;;
3149;SDS011;32503;47.748;8.960;2023-11-21T05:33:00;1.10;;;0.93;;
3149;SDS011;32503;47.748;8.960;2023-11-21T05:35:28;0.87;;;0.70;;
3149;SDS011;32503;47.748;8.960;2023-11-21T05:37:57;0.90;;;0.70;;
3149;SDS011;32503;47.748;8.960;2023-11-21T05:40:24;0.73;;;0.73;;
3149;SDS011;32503;47.748;8.960;2023-11-21T05:42:54;1.10;;;0.90;;
3149;SDS011;32503;47.748;8.960;2023-11-21T05:45:24;1.33;;;0.73;;
3149;SDS011;32503;47.748;8.960;2023-11-21T05:47:51;4.20;;;0.90;;
3149;SDS011;32503;47.748;8.960;2023-11-21T05:50:22;1.17;;;1.07;;
3149;SDS011;32503;47.748;8.960;2023-11-21T05:52:49;1.10;;;1.00;;
3149;SDS011;32503;47.748;8.960;2023-11-21T05:55:16;1.00;;;0.90;;
3149;SDS011;32503;47.748;8.960;2023-11-21T05:57:46;0.73;;;0.73;;
3149;SDS011;32503;47.748;8.960;2023-11-21T06:00:14;1.37;;;1.00;;
3149;SDS011;32503;47.748;8.960;2023-11-21T06:02:45;1.53;;;1.40;;
3149;SDS011;32503;47.748;8.960;2023-11-21T06:05:12;0.87;;;0.87;;
3149;SDS011;32503;47.748;8.960;2023-11-21T06:07:40;1.53;;;1.43;;
3149;SDS011;32503;47.748;8.960;2023-11-21T06:10:08;3.57;;;1.30;;
3149;SDS011;32503;47.748;8.960;2023-11-21T06:12:37;3.63;;;1.10;;
3149;SDS011;32503;47.748;8.960;2023-11-21T06:15:05;1.00;;;0.80;;
3149;SDS011;32503;47.748;8.960;2023-11-21T06:17:34;0.87;;;0.83;;
3149;SDS011;32503;47.748;8.960;2023-11-21T06:20:02;0.93;;;0.83;;
3149;SDS011;32503;47.748;8.960;2023-11-21T06:22:34;0.93;;;0.93;;
3149;SDS011;32503;47.748;8.960;2023-11-21T06:25:03;2.60;;;0.90;;
3149;SDS011;32503;47.748;8.960;2023-11-21T06:27:32;1.80;;;1.10;;
3149;SDS011;32503;47.748;8.960;2023-11-21T06:30:01;2.03;;;1.10;;
3149;SDS011;32503;47.748;8.960;2023-11-21T06:32:28;1.03;;;0.90;;
3149;SDS011;32503;47.748;8.960;2023-11-21T06:34:56;1.13;;;1.03;;
3149;SDS011;32503;47.748;8.960;2023-11-21T06:37:24;1.40;;;1.30;;
3149;SDS011;32503;47.748;8.960;2023-11-21T06:39:51;1.20;;;1.10;;
3149;SDS011;32503;47.748;8.960;2023-11-21T06:42:20;1.07;;;0.97;;
3149;SDS011;32503;47.748;8.960;2023-11-21T06:44:47;2.80;;;1.60;;
3149;SDS011;32503;47.748;8.960;2023-11-21T06:47:16;1.30;;;1.20;;
3149;SDS011;32503;47.748;8.960;2023-11-21T06:49:45;3.43;;;1.60;;
3149;SDS011;32503;47.748;8.960;2023-11-21T06:52:14;0.97;;;0.97;;
3149;SDS011;32503;47.748;8.960;2023-11-21T06:54:41;1.17;;;1.07;;
3149;SDS011;32503;47.748;8.960;2023-11-21T06:57:08;1.20;;;1.10;;
3149;SDS011;32503;47.748;8.960;2023-11-21T06:59:36;1.53;;;1.40;;
3149;SDS011;32503;47.748;8.960;2023-11-21T07:02:04;1.57;;;1.47;;
3149;SDS011;32503;47.748;8.960;2023-11-21T07:04:34;2.50;;;2.33;;
3149;SDS011;32503;47.748;8.960;2023-11-21T07:07:01;5.17;;;2.70;;
3149;SDS011;32503;47.748;8.960;2023-11-21T07:09:33;4.63;;;2.83;;
3149;SDS011;32503;47.748;8.960;2023-11-21T07:12:00;3.07;;;2.73;;
3149;SDS011;32503;47.748;8.960;2023-11-21T07:14:28;4.07;;;3.70;;
3149;SDS011;32503;47.748;8.960;2023-11-21T07:16:57;2.50;;;2.30;;
3149;SDS011;32503;47.748;8.960;2023-11-21T07:19:24;2.30;;;2.20;;
3149;SDS011;32503;47.748;8.960;2023-11-21T07:21:51;2.40;;;2.20;;
3149;SDS011;32503;47.748;8.960;2023-11-21T07:24:18;2.10;;;2.00;;
3149;SDS011;32503;47.748;8.960;2023-11-21T07:26:45;1.63;;;1.50;;
3149;SDS011;32503;47.748;8.960;2023-11-21T07:29:13;1.60;;;1.43;;
3149;SDS011;32503;47.748;8.960;2023-11-21T07:31:40;2.63;;;2.00;;
3149;SDS011;32503;47.748;8.960;2023-11-21T07:34:08;3.00;;;2.80;;
3149;SDS011;32503;47.748;8.960;2023-11-21T07:36:39;3.73;;;3.43;;
3149;SDS011;32503;47.748;8.960;2023-11-21T07:39:07;3.57;;;3.37;;
3149;SDS011;32503;47.748;8.960;2023-11-21T07:41:34;11.10;;;7.67;;
3149;SDS011;32503;47.748;8.960;2023-11-21T07:44:03;15.07;;;12.00;;
3149;SDS011;32503;47.748;8.960;2023-11-21T07:46:31;13.13;;;10.70;;
3149;SDS011;32503;47.748;8.960;2023-11-21T07:48:58;16.67;;;11.30;;
3149;SDS011;32503;47.748;8.960;2023-11-21T07:51:26;21.57;;;14.93;;
3149;SDS011;32503;47.748;8.960;2023-11-21T07:53:53;45.83;;;22.80;;
3149;SDS011;32503;47.748;8.960;2023-11-21T07:56:20;44.67;;;19.03;;
3149;SDS011;32503;47.748;8.960;2023-11-21T07:58:48;29.10;;;16.07;;
3149;SDS011;32503;47.748;8.960;2023-11-21T08:01:15;21.50;;;13.67;;
3149;SDS011;32503;47.748;8.960;2023-11-21T08:03:42;7.47;;;6.80;;
3149;SDS011;32503;47.748;8.960;2023-11-21T08:06:09;5.20;;;4.80;;
3149;SDS011;32503;47.748;8.960;2023-11-21T08:08:38;4.60;;;4.30;;
3149;SDS011;32503;47.748;8.960;2023-11-21T08:11:05;4.03;;;3.83;;
3149;SDS011;32503;47.748;8.960;2023-11-21T08:13:33;9.03;;;7.03;;
3149;SDS011;32503;47.748;8.960;2023-11-21T08:16:01;5.97;;;5.43;;
3149;SDS011;32503;47.748;8.960;2023-11-21T08:18:30;3.77;;;3.50;;
3149;SDS011;32503;47.748;8.960;2023-11-21T08:20:57;9.50;;;7.03;;
3149;SDS011;32503;47.748;8.960;2023-11-21T08:23:24;5.00;;;4.60;;
3149;SDS011;32503;47.748;8.960;2023-11-21T08:25:52;3.00;;;2.80;;
3149;SDS011;32503;47.748;8.960;2023-11-21T08:28:20;2.40;;;2.20;;
3149;SDS011;32503;47.748;8.960;2023-11-21T08:30:48;1.87;;;1.77;;
3149;SDS011;32503;47.748;8.960;2023-11-21T08:33:15;1.90;;;1.73;;
3149;SDS011;32503;47.748;8.960;2023-11-21T08:35:42;2.10;;;2.00;;
3149;SDS011;32503;47.748;8.960;2023-11-21T08:38:10;1.90;;;1.80;;
3149;SDS011;32503;47.748;8.960;2023-11-21T08:40:37;2.37;;;1.80;;
3149;SDS011;32503;47.748;8.960;2023-11-21T08:43:06;1.80;;;1.70;;
3149;SDS011;32503;47.748;8.960;2023-11-21T08:45:33;1.70;;;1.60;;
3149;SDS011;32503;47.748;8.960;2023-11-21T08:48:00;1.77;;;1.67;;
3149;SDS011;32503;47.748;8.960;2023-11-21T08:50:27;2.33;;;1.30;;
3149;SDS011;32503;47.748;8.960;2023-11-21T08:52:55;1.37;;;1.27;;
3149;SDS011;32503;47.748;8.960;2023-11-21T08:55:22;1.40;;;1.30;;
3149;SDS011;32503;47.748;8.960;2023-11-21T08:57:49;2.03;;;1.93;;
3149;SDS011;32503;47.748;8.960;2023-11-21T09:00:17;1.20;;;1.10;;
3149;SDS011;32503;47.748;8.960;2023-11-21T09:02:45;1.47;;;1.37;;
3149;SDS011;32503;47.748;8.960;2023-11-21T09:05:14;2.20;;;1.53;;
3149;SDS011;32503;47.748;8.960;2023-11-21T09:07:42;1.97;;;1.00;;
3149;SDS011;32503;47.748;8.960;2023-11-21T09:10:11;1.20;;;1.10;;
3149;SDS011;32503;47.748;8.960;2023-11-21T09:12:39;1.77;;;1.63;;
3149;SDS011;32503;47.748;8.960;2023-11-21T09:15:08;2.20;;;2.10;;
3149;SDS011;32503;47.748;8.960;2023-11-21T09:17:38;1.90;;;1.80;;
3149;SDS011;32503;47.748;8.960;2023-11-21T09:20:06;5.53;;;1.20;;
3149;SDS011;32503;47.748;8.960;2023-11-21T09:22:35;2.13;;;1.37;;
3149;SDS011;32503;47.748;8.960;2023-11-21T09:25:04;2.10;;;2.00;;
3149;SDS011;32503;47.748;8.960;2023-11-21T09:27:36;1.33;;;1.10;;
3149;SDS011;32503;47.748;8.960;2023-11-21T09:30:03;2.30;;;1.07;;
3149;SDS011;32503;47.748;8.960;2023-11-21T09:32:34;2.33;;;1.20;;
3149;SDS011;32503;47.748;8.960;2023-11-21T09:35:03;1.30;;;1.03;;
3149;SDS011;32503;47.748;8.960;2023-11-21T09:37:33;1.23;;;1.13;;
3149;SDS011;32503;47.748;8.960;2023-11-21T09:40:03;1.00;;;1.00;;
3149;SDS011;32503;47.748;8.960;2023-11-21T09:42:36;1.70;;;1.60;;
3149;SDS011;32503;47.748;8.960;2023-11-21T09:45:09;1.30;;;1.10;;
3149;SDS011;32503;47.748;8.960;2023-11-21T09:47:43;1.40;;;1.30;;
3149;SDS011;32503;47.748;8.960;2023-11-21T09:50:12;1.47;;;1.37;;
3149;SDS011;32503;47.748;8.960;2023-11-21T09:52:48;1.00;;;0.90;;
3149;SDS011;32503;47.748;8.960;2023-11-21T09:55:22;1.23;;;0.97;;
3149;SDS011;32503;47.748;8.960;2023-11-21T09:57:53;2.17;;;1.47;;
3149;SDS011;32503;47.748;8.960;2023-11-21T10:00:22;2.90;;;1.57;;
3149;SDS011;32503;47.748;8.960;2023-11-21T10:02:49;1.57;;;1.47;;
3149;SDS011;32503;47.748;8.960;2023-11-21T10:05:19;1.30;;;1.20;;
3149;SDS011;32503;47.748;8.960;2023-11-21T10:07:47;1.13;;;0.90;;
3149;SDS011;32503;47.748;8.960;2023-11-21T10:10:17;1.00;;;1.00;;
3149;SDS011;32503;47.748;8.960;2023-11-21T10:12:48;1.33;;;1.23;;
3149;SDS011;32503;47.748;8.960;2023-11-21T10:15:20;1.23;;;1.13;;
3149;SDS011;32503;47.748;8.960;2023-11-21T10:17:50;1.13;;;1.03;;
3149;SDS011;32503;47.748;8.960;2023-11-21T10:20:20;1.00;;;0.90;;
3149;SDS011;32503;47.748;8.960;2023-11-21T10:22:49;0.70;;;0.70;;
3149;SDS011;32503;47.748;8.960;2023-11-21T10:25:16;0.90;;;0.90;;
3149;SDS011;32503;47.748;8.960;2023-11-21T10:27:46;1.57;;;0.90;;
3149;SDS011;32503;47.748;8.960;2023-11-21T10:30:17;0.93;;;0.80;;
3149;SDS011;32503;47.748;8.960;2023-11-21T10:32:44;1.73;;;0.90;;
3149;SDS011;32503;47.748;8.960;2023-11-21T10:35:11;1.03;;;1.03;;
3149;SDS011;32503;47.748;8.960;2023-11-21T10:37:40;1.10;;;0.90;;
3149;SDS011;32503;47.748;8.960;2023-11-21T10:40:08;0.60;;;0.50;;
3149;SDS011;32503;47.748;8.960;2023-11-21T10:42:37;1.17;;;0.80;;
3149;SDS011;32503;47.748;8.960;2023-11-21T10:45:05;1.17;;;1.07;;
3149;SDS011;32503;47.748;8.960;2023-11-21T10:47:37;1.17;;;1.00;;
3149;SDS011;32503;47.748;8.960;2023-11-21T10:50:05;1.10;;;1.00;;
3149;SDS011;32503;47.748;8.960;2023-11-21T10:52:35;0.93;;;0.93;;
3149;SDS011;32503;47.748;8.960;2023-11-21T10:55:08;1.20;;;1.10;;
3149;SDS011;32503;47.748;8.960;2023-11-21T10:57:44;1.10;;;1.10;;
3149;SDS011;32503;47.748;8.960;2023-11-21T11:00:14;1.67;;;1.43;;
3149;SDS011;32503;47.748;8.960;2023-11-21T11:02:45;1.50;;;1.40;;
3149;SDS011;32503;47.748;8.960;2023-11-21T11:05:14;1.10;;;1.00;;
3149;SDS011;32503;47.748;8.960;2023-11-21T11:07:45;0.90;;;0.90;;
3149;SDS011;32503;47.748;8.960;2023-11-21T11:10:20;1.63;;;1.53;;
3149;SDS011;32503;47.748;8.960;2023-11-21T11:12:51;1.70;;;1.60;;
3149;SDS011;32503;47.748;8.960;2023-11-21T11:15:20;1.27;;;1.17;;
3149;SDS011;32503;47.748;8.960;2023-11-21T11:17:48;2.67;;;1.27;;
3149;SDS011;32503;47.748;8.960;2023-11-21T11:20:16;1.30;;;1.20;;
3149;SDS011;32503;47.748;8.960;2023-11-21T11:22:48;1.37;;;1.27;;
3149;SDS011;32503;47.748;8.960;2023-11-21T11:25:35;1.80;;;1.70;;
3149;SDS011;32503;47.748;8.960;2023-11-21T11:28:19;2.03;;;1.43;;
3149;SDS011;32503;47.748;8.960;2023-11-21T11:30:56;1.30;;;1.20;;
3149;SDS011;32503;47.748;8.960;2023-11-21T11:33:31;1.37;;;1.27;;
3149;SDS011;32503;47.748;8.960;2023-11-21T11:36:08;1.40;;;1.30;;
3149;SDS011;32503;47.748;8.960;2023-11-21T11:38:45;1.30;;;0.83;;
3149;SDS011;32503;47.748;8.960;2023-11-21T11:41:23;0.80;;;0.80;;
3149;SDS011;32503;47.748;8.960;2023-11-21T11:43:52;0.60;;;0.60;;
3149;SDS011;32503;47.748;8.960;2023-11-21T11:46:19;0.90;;;0.50;;
3149;SDS011;32503;47.748;8.960;2023-11-21T11:48:47;0.77;;;0.67;;
3149;SDS011;32503;47.748;8.960;2023-11-21T11:51:28;0.60;;;0.60;;
3149;SDS011;32503;47.748;8.960;2023-11-21T11:53:56;0.80;;;0.80;;
3149;SDS011;32503;47.748;8.960;2023-11-21T11:56:25;0.73;;;0.70;;
3149;SDS011;32503;47.748;8.960;2023-11-21T11:58:55;0.90;;;0.83;;
3149;SDS011;32503;47.748;8.960;2023-11-21T12:01:24;1.30;;;0.83;;
3149;SDS011;32503;47.748;8.960;2023-11-21T12:06:56;0.83;;;0.83;;
3149;SDS011;32503;47.748;8.960;2023-11-21T12:09:27;1.00;;;0.90;;
3149;SDS011;32503;47.748;8.960;2023-11-21T12:11:58;0.83;;;0.80;;
3149;SDS011;32503;47.748;8.960;2023-11-21T12:14:26;1.10;;;1.00;;
3149;SDS011;32503;47.748;8.960;2023-11-21T12:16:54;1.00;;;0.90;;
3149;SDS011;32503;47.748;8.960;2023-11-21T12:19:21;0.90;;;0.90;;
3149;SDS011;32503;47.748;8.960;2023-11-21T12:21:48;0.80;;;0.80;;
3149;SDS011;32503;47.748;8.960;2023-11-21T12:24:17;1.53;;;1.07;;
3149;SDS011;32503;47.748;8.960;2023-11-21T12:26:44;0.80;;;0.70;;
3149;SDS011;32503;47.748;8.960;2023-11-21T12:29:12;0.80;;;0.80;;
3149;SDS011;32503;47.748;8.960;2023-11-21T12:31:41;1.60;;;1.50;;
3149;SDS011;32503;47.748;8.960;2023-11-21T12:34:09;2.17;;;1.60;;
3149;SDS011;32503;47.748;8.960;2023-11-21T12:36:37;1.70;;;1.53;;
3149;SDS011;32503;47.748;8.960;2023-11-21T12:39:05;2.33;;;1.87;;
3149;SDS011;32503;47.748;8.960;2023-11-21T12:41:34;2.67;;;2.47;;
3149;SDS011;32503;47.748;8.960;2023-11-21T12:44:01;1.40;;;1.30;;
3149;SDS011;32503;47.748;8.960;2023-11-21T12:46:29;1.50;;;1.40;;
3149;SDS011;32503;47.748;8.960;2023-11-21T12:48:59;2.20;;;2.00;;
3149;SDS011;32503;47.748;8.960;2023-11-21T12:51:26;21.50;;;11.50;;
3149;SDS011;32503;47.748;8.960;2023-11-21T12:53:54;2.63;;;2.53;;
3149;SDS011;32503;47.748;8.960;2023-11-21T12:56:23;1.60;;;1.40;;
3149;SDS011;32503;47.748;8.960;2023-11-21T12:58:50;2.13;;;1.67;;
3149;SDS011;32503;47.748;8.960;2023-11-21T13:01:24;1.30;;;1.20;;
3149;SDS011;32503;47.748;8.960;2023-11-21T13:03:56;1.30;;;1.20;;
3149;SDS011;32503;47.748;8.960;2023-11-21T13:06:24;1.33;;;1.23;;
3149;SDS011;32503;47.748;8.960;2023-11-21T13:08:52;1.50;;;1.40;;
3149;SDS011;32503;47.748;8.960;2023-11-21T13:11:22;1.97;;;1.87;;
3149;SDS011;32503;47.748;8.960;2023-11-21T13:13:51;1.40;;;1.27;;
3149;SDS011;32503;47.748;8.960;2023-11-21T13:16:19;2.93;;;1.20;;
3149;SDS011;32503;47.748;8.960;2023-11-21T13:18:46;2.73;;;1.00;;
3149;SDS011;32503;47.748;8.960;2023-11-21T13:21:16;1.17;;;1.07;;
3149;SDS011;32503;47.748;8.960;2023-11-21T13:23:43;1.23;;;1.13;;
3149;SDS011;32503;47.748;8.960;2023-11-21T13:26:13;1.43;;;0.80;;
3149;SDS011;32503;47.748;8.960;2023-11-21T13:28:41;0.80;;;0.73;;
3149;SDS011;32503;47.748;8.960;2023-11-21T13:31:11;1.13;;;1.00;;
3149;SDS011;32503;47.748;8.960;2023-11-21T13:33:52;1.20;;;0.90;;
3149;SDS011;32503;47.748;8.960;2023-11-21T13:36:25;0.90;;;0.90;;
3149;SDS011;32503;47.748;8.960;2023-11-21T13:38:55;1.10;;;1.00;;
3149;SDS011;32503;47.748;8.960;2023-11-21T13:41:23;0.80;;;0.70;;
3149;SDS011;32503;47.748;8.960;2023-11-21T13:43:55;1.00;;;0.90;;
3149;SDS011;32503;47.748;8.960;2023-11-21T13:46:31;1.03;;;0.90;;
3149;SDS011;32503;47.748;8.960;2023-11-21T13:49:02;0.90;;;0.83;;
3149;SDS011;32503;47.748;8.960;2023-11-21T13:51:35;1.10;;;1.00;;
3149;SDS011;32503;47.748;8.960;2023-11-21T13:54:06;0.70;;;0.70;;
3149;SDS011;32503;47.748;8.960;2023-11-21T13:56:34;0.90;;;0.90;;
3149;SDS011;32503;47.748;8.960;2023-11-21T13:59:02;0.90;;;0.90;;
3149;SDS011;32503;47.748;8.960;2023-11-21T14:01:38;1.00;;;0.90;;
3149;SDS011;32503;47.748;8.960;2023-11-21T14:04:19;0.80;;;0.80;;
3149;SDS011;32503;47.748;8.960;2023-11-21T14:07:02;0.97;;;0.70;;
3149;SDS011;32503;47.748;8.960;2023-11-21T14:09:48;0.77;;;0.70;;
3149;SDS011;32503;47.748;8.960;2023-11-21T14:12:15;0.80;;;0.70;;
3149;SDS011;32503;47.748;8.960;2023-11-21T14:14:42;0.90;;;0.90;;
3149;SDS011;32503;47.748;8.960;2023-11-21T14:17:10;0.93;;;0.87;;
3149;SDS011;32503;47.748;8.960;2023-11-21T14:19:37;0.80;;;0.67;;
3149;SDS011;32503;47.748;8.960;2023-11-21T14:22:09;0.87;;;0.73;;
3149;SDS011;32503;47.748;8.960;2023-11-21T14:24:36;0.80;;;0.70;;
3149;SDS011;32503;47.748;8.960;2023-11-21T14:27:10;0.80;;;0.73;;
3149;SDS011;32503;47.748;8.960;2023-11-21T14:29:37;1.13;;;0.80;;
3149;SDS011;32503;47.748;8.960;2023-11-21T14:32:08;0.93;;;0.80;;
3149;SDS011;32503;47.748;8.960;2023-11-21T14:34:35;0.90;;;0.60;;
3149;SDS011;32503;47.748;8.960;2023-11-21T14:37:03;1.00;;;0.90;;
3149;SDS011;32503;47.748;8.960;2023-11-21T14:39:33;0.60;;;0.60;;
3149;SDS011;32503;47.748;8.960;2023-11-21T14:42:05;1.07;;;0.97;;
3149;SDS011;32503;47.748;8.960;2023-11-21T14:44:33;0.90;;;0.90;;
3149;SDS011;32503;47.748;8.960;2023-11-21T14:47:03;1.43;;;1.33;;
3149;SDS011;32503;47.748;8.960;2023-11-21T14:49:40;1.30;;;1.20;;
3149;SDS011;32503;47.748;8.960;2023-11-21T14:52:17;1.83;;;1.73;;
3149;SDS011;32503;47.748;8.960;2023-11-21T14:54:59;1.50;;;1.40;;
3149;SDS011;32503;47.748;8.960;2023-11-21T14:57:40;1.20;;;1.10;;
3149;SDS011;32503;47.748;8.960;2023-11-21T15:00:11;0.90;;;0.70;;
3149;SDS011;32503;47.748;8.960;2023-11-21T15:02:59;1.03;;;0.97;;
3149;SDS011;32503;47.748;8.960;2023-11-21T15:05:26;0.90;;;0.70;;
3149;SDS011;32503;47.748;8.960;2023-11-21T15:07:52;1.00;;;0.70;;
3149;SDS011;32503;47.748;8.960;2023-11-21T15:10:23;0.80;;;0.80;;
3149;SDS011;32503;47.748;8.960;2023-11-21T15:13:03;1.00;;;0.90;;